createdAt,value
2022-10-20T00:02:57.040Z,1026.11
2022-10-20T00:07:49.634Z,1026.14
2022-10-20T00:12:42.307Z,1026.19
2022-10-20T00:17:36.827Z,1026.22
2022-10-20T00:22:29.200Z,1026.08
2022-10-20T00:32:09.372Z,1025.88
2022-10-20T00:37:03.221Z,1025.82
2022-10-20T00:41:55.565Z,1025.72
2022-10-20T00:46:47.872Z,1025.69
2022-10-20T00:51:34.475Z,1025.64
2022-10-20T00:56:28.004Z,1025.52
2022-10-20T01:06:11.492Z,1025.4
2022-10-20T01:11:04.364Z,1025.44
2022-10-20T01:15:56.507Z,1025.37
2022-10-20T01:20:48.770Z,1025.33
2022-10-20T01:25:43.290Z,1025.24
2022-10-20T01:30:35.614Z,1025.17
2022-10-20T01:35:28.322Z,1025.13
2022-10-20T01:40:20.976Z,1025.05
2022-10-20T01:45:15.533Z,1025
2022-10-20T01:50:07.606Z,1024.98
2022-10-20T01:55:02.341Z,1024.94
2022-10-20T01:59:54.199Z,1024.86
2022-10-20T02:04:46.657Z,1024.85
2022-10-20T02:09:40.802Z,1024.91
2022-10-20T02:14:27.335Z,1024.81
2022-10-20T02:19:20.405Z,1024.76
2022-10-20T02:24:16.307Z,1024.7
2022-10-20T02:29:08.443Z,1024.76
2022-10-20T02:34:01.226Z,1024.61
2022-10-20T02:38:53.739Z,1024.53
2022-10-20T02:43:46.393Z,1024.47
2022-10-20T02:48:38.858Z,1024.47
2022-10-20T02:53:31.356Z,1024.43
2022-10-20T02:58:23.910Z,1024.46
2022-10-20T03:03:16.922Z,1024.44
2022-10-20T03:08:09.429Z,1024.38
2022-10-20T03:13:01.914Z,1024.38
2022-10-20T03:22:42.122Z,1024.34
2022-10-20T03:27:35.872Z,1024.24
2022-10-20T03:32:28.240Z,1024.15
2022-10-20T03:37:22.802Z,1024.16
2022-10-20T03:42:14.864Z,1024.13
2022-10-20T03:51:54.950Z,1024.1
2022-10-20T03:56:48.569Z,1024.14
2022-10-20T04:01:43.314Z,1024.1
2022-10-20T04:06:35.469Z,1024.03
2022-10-20T04:11:28.197Z,1023.98
2022-10-20T04:16:22.603Z,1023.86
2022-10-20T04:21:15.174Z,1023.81
2022-10-20T04:26:07.603Z,1023.75
2022-10-20T04:31:00.040Z,1023.73
2022-10-20T04:35:52.596Z,1023.59
2022-10-20T04:40:45.058Z,1023.58
2022-10-20T04:45:37.725Z,1023.48
2022-10-20T04:50:30.312Z,1023.4
2022-10-20T04:55:22.826Z,1023.3
2022-10-20T05:00:15.386Z,1023.27
2022-10-20T05:05:07.914Z,1023.19
2022-10-20T05:14:53.199Z,1023.05
2022-10-20T05:19:45.228Z,1023.1
2022-10-20T05:24:37.844Z,1023.07
2022-10-20T05:29:30.324Z,1023.07
2022-10-20T05:34:22.684Z,1023.06
2022-10-20T05:39:15.403Z,1023.12
2022-10-20T05:44:07.710Z,1023.04
2022-10-20T05:48:59.667Z,1023.06
2022-10-20T05:53:52.009Z,1023.02
2022-10-20T05:58:44.318Z,1023.05
2022-10-20T06:03:36.578Z,1022.92
2022-10-20T06:08:29.259Z,1022.91
2022-10-20T06:13:21.775Z,1022.91
2022-10-20T06:18:14.579Z,1022.87
2022-10-20T06:23:06.963Z,1022.8
2022-10-20T06:27:59.420Z,1022.81
2022-10-20T06:32:51.902Z,1022.87
2022-10-20T06:37:44.494Z,1022.86
2022-10-20T06:42:37.489Z,1022.84
2022-10-20T06:47:29.511Z,1022.83
2022-10-20T06:52:22.158Z,1022.74
2022-10-20T06:57:14.726Z,1022.7
2022-10-20T07:02:07.354Z,1022.68
2022-10-20T07:06:59.860Z,1022.73
2022-10-20T07:11:52.254Z,1022.68
2022-10-20T07:16:44.819Z,1022.57
2022-10-20T07:21:38.284Z,1022.58
2022-10-20T07:26:29.785Z,1022.53
2022-10-20T07:31:22.385Z,1022.47
2022-10-20T07:36:14.990Z,1022.48
2022-10-20T07:41:07.591Z,1022.47
2022-10-20T07:46:00.643Z,1022.4
2022-10-20T07:50:53.467Z,1022.38
2022-10-20T07:55:45.964Z,1022.33
2022-10-20T08:05:30.922Z,1022.23
2022-10-20T08:10:23.412Z,1022.17
2022-10-20T08:15:15.948Z,1022.16
2022-10-20T08:20:08.817Z,1022.04
2022-10-20T08:25:01.217Z,1021.95
2022-10-20T08:29:59.856Z,1021.88
2022-10-20T08:34:46.187Z,1021.84
2022-10-20T08:39:38.849Z,1021.88
2022-10-20T08:44:31.557Z,1021.77
2022-10-20T08:49:24.309Z,1021.66
2022-10-20T08:54:16.626Z,1021.59
2022-10-20T08:59:09.146Z,1021.67
2022-10-20T09:04:01.639Z,1021.64
2022-10-20T09:08:54.380Z,1021.57
2022-10-20T09:18:39.403Z,1021.62
2022-10-20T09:23:47.417Z,1021.53
2022-10-20T09:28:24.650Z,1021.44
2022-10-20T09:33:17.199Z,1021.38
2022-10-20T09:38:09.838Z,1021.26
2022-10-20T09:43:02.213Z,1021.22
2022-10-20T09:47:54.650Z,1021.04
2022-10-20T09:52:48.031Z,1020.99
2022-10-20T09:57:40.035Z,1020.98
2022-10-20T10:02:32.360Z,1020.92
2022-10-20T10:07:24.769Z,1021.03
2022-10-20T10:12:17.351Z,1021
2022-10-20T10:17:09.860Z,1020.97
2022-10-20T10:22:02.240Z,1020.91
2022-10-20T10:26:54.714Z,1020.81
2022-10-20T10:31:46.998Z,1020.67
2022-10-20T10:36:39.435Z,1020.51
2022-10-20T10:41:31.990Z,1020.37
2022-10-20T10:46:24.194Z,1020.14
2022-10-20T10:51:16.522Z,1020.06
2022-10-20T11:01:01.691Z,1019.88
2022-10-20T11:05:54.384Z,1019.89
2022-10-20T11:15:34.523Z,1019.91
2022-10-20T11:20:28.254Z,1019.85
2022-10-20T11:25:20.741Z,1019.73
2022-10-20T11:30:15.194Z,1019.58
2022-10-20T11:35:07.487Z,1019.36
2022-10-20T11:40:02.111Z,1019.24
2022-10-20T11:44:52.512Z,1019.16
2022-10-20T11:49:44.988Z,1019.15
2022-10-20T11:54:37.601Z,1019.09
2022-10-20T11:59:30.175Z,1018.99
2022-10-20T12:04:22.849Z,1018.99
2022-10-20T12:09:15.573Z,1019.01
2022-10-20T12:14:08.084Z,1018.85
2022-10-20T12:23:53.088Z,1018.64
2022-10-20T12:28:45.568Z,1018.54
2022-10-20T12:33:38.101Z,1018.47
2022-10-20T12:38:30.607Z,1018.44
2022-10-20T12:48:15.479Z,1018.6
2022-10-20T12:58:00.387Z,1018.63
2022-10-20T13:07:40.643Z,1018.46
2022-10-20T13:17:26.679Z,1018.47
2022-10-20T13:22:19.362Z,1018.33
2022-10-20T13:27:11.869Z,1018.37
2022-10-20T13:32:04.447Z,1018.37
2022-10-20T13:36:56.923Z,1018.3
2022-10-20T13:41:49.190Z,1018.2
2022-10-20T13:46:41.862Z,1018.18
2022-10-20T13:51:34.391Z,1018.09
2022-10-20T13:56:26.984Z,1017.92
2022-10-20T14:01:19.352Z,1017.98
2022-10-20T14:06:11.695Z,1018.02
2022-10-20T14:11:04.372Z,1018.08
2022-10-20T14:15:56.982Z,1018.23
2022-10-20T14:20:49.379Z,1018.27
2022-10-20T14:25:41.896Z,1018.31
2022-10-20T14:30:36.300Z,1018.23
2022-10-20T14:35:26.840Z,1018.12
2022-10-20T14:40:19.414Z,1018
2022-10-20T14:45:12.090Z,1017.93
2022-10-20T14:50:04.714Z,1017.94
2022-10-20T14:54:57.286Z,1017.89
2022-10-20T14:59:49.669Z,1017.9
2022-10-20T15:09:30.024Z,1017.84
2022-10-20T15:14:25.630Z,1017.62
2022-10-20T15:19:17.932Z,1017.6
2022-10-20T15:24:12.707Z,1017.29
2022-10-20T15:29:04.528Z,1017.04
2022-10-20T15:33:57.661Z,1017.28
2022-10-20T15:38:52.219Z,1017.42
2022-10-20T15:43:43.845Z,1017.38
2022-10-20T15:48:36.400Z,1017.53
2022-10-20T15:53:28.713Z,1017.67
2022-10-20T15:58:23.406Z,1017.69
2022-10-20T16:03:17.679Z,1017.64
2022-10-20T16:12:57.945Z,1017.76
2022-10-20T16:17:51.917Z,1017.77
2022-10-20T16:27:34.045Z,1017.76
2022-10-20T16:32:29.152Z,1017.71
2022-10-20T16:37:19.328Z,1017.73
2022-10-20T16:42:12.234Z,1017.72
2022-10-20T16:47:06.747Z,1017.68
2022-10-20T16:51:58.835Z,1017.61
2022-10-20T16:56:53.606Z,1017.54
2022-10-20T17:01:45.803Z,1017.39
2022-10-20T17:11:26.032Z,1017.48
2022-10-20T17:16:20.038Z,1017.52
2022-10-20T17:21:06.675Z,1017.42
2022-10-20T17:26:01.945Z,1017.42
2022-10-20T17:30:54.957Z,1017.43
2022-10-20T17:35:47.800Z,1017.55
2022-10-20T17:40:34.786Z,1017.59
2022-10-20T17:45:28.378Z,1017.61
2022-10-20T17:50:23.897Z,1017.56
2022-10-20T17:55:16.324Z,1017.37
2022-10-20T18:05:04.774Z,1017.21
2022-10-20T18:14:49.620Z,1016.79
2022-10-20T18:24:34.526Z,1016.74
2022-10-20T18:29:28.850Z,1016.68
2022-10-20T18:34:21.258Z,1016.44
2022-10-20T18:39:13.915Z,1016.11
2022-10-20T18:48:54.064Z,1017.04
2022-10-20T18:53:47.807Z,1017.07
2022-10-20T18:58:42.675Z,1017.06
2022-10-20T19:03:37.373Z,1017.28
2022-10-20T19:08:29.322Z,1017.04
2022-10-20T19:13:21.702Z,1017.21
2022-10-20T19:23:02.070Z,1017.18
2022-10-20T19:27:56.061Z,1017.18
2022-10-20T19:32:48.594Z,1017.06
2022-10-20T19:37:40.830Z,1017.1
2022-10-20T19:42:35.935Z,1017.02
2022-10-20T19:52:15.571Z,1017.08
2022-10-20T19:57:09.011Z,1017.09
2022-10-20T20:02:01.846Z,1017.1
2022-10-20T20:06:57.301Z,1017.15
2022-10-20T20:11:48.033Z,1017.16
2022-10-20T20:16:42.426Z,1017.03
2022-10-20T20:21:34.890Z,1017.03
2022-10-20T20:26:29.719Z,1016.97
2022-10-20T20:31:21.846Z,1017.04
2022-10-20T20:36:16.646Z,1017.12
2022-10-20T20:41:08.941Z,1017.2
2022-10-20T20:45:55.569Z,1017.27
2022-10-20T20:50:51.073Z,1017.3
2022-10-20T20:55:43.757Z,1017.21
2022-10-20T21:00:36.404Z,1016.96
2022-10-20T21:05:28.779Z,1016.93
2022-10-20T21:10:21.594Z,1017.13
2022-10-20T21:15:14.339Z,1017.01
2022-10-20T21:20:06.603Z,1016.9
2022-10-20T21:24:58.979Z,1016.77
2022-10-20T21:29:51.733Z,1016.7
2022-10-20T21:34:44.377Z,1016.78
2022-10-20T21:44:25.319Z,1016.61
2022-10-20T21:49:17.676Z,1016.59
2022-10-20T21:54:05.547Z,1016.44
2022-10-20T21:59:00.805Z,1016.43
2022-10-20T22:03:53.924Z,1016.53
2022-10-20T22:08:46.826Z,1016.53
2022-10-20T22:13:33.645Z,1016.49
2022-10-20T22:18:29.293Z,1016.51
2022-10-20T22:23:16.431Z,1016.3
2022-10-20T22:28:10.043Z,1016.24
2022-10-20T22:33:03.853Z,1016.19
2022-10-20T22:37:58.935Z,1016.29
2022-10-20T22:42:50.971Z,1016.38
2022-10-20T22:47:37.927Z,1016.43
2022-10-20T22:52:33.387Z,1016.4
2022-10-20T22:57:20.552Z,1016.47
2022-10-20T23:02:14.506Z,1016.27
2022-10-20T23:07:10.942Z,1016.29
2022-10-20T23:12:05.483Z,1016.19
2022-10-20T23:16:58.001Z,1016.21
2022-10-20T23:21:52.864Z,1016.16
2022-10-20T23:26:45.362Z,1016.1
2022-10-20T23:31:39.682Z,1015.96
2022-10-20T23:36:33.232Z,1015.98
2022-10-20T23:41:26.495Z,1015.85
2022-10-20T23:51:05.487Z,1015.77
